Terminal Aerodrome Forecast
Issued by NWS Cleveland, OH

Home | Current Version | Previous Version | Text Only | Print | Product List | Glossary Off
Versions: 1 2 3 4 5 6 7 8 9 10 11 12 13 14 15 16 17 18

000
FTUS41 KCLE 202300
TAFMFD
TAF
KMFD 202333Z 2100/2124 17006KT P6SM SCT250
     FM211600 20010G18KT P6SM BKN180=

USA.gov is the U.S. government's official web portal to all federal, state and local government web resources and services.